Time;durP1;ratioP1;P1;durP2;ratioP2;P2;SDS_P1;SDS_P2;PMS_P1;PMS_P2;Temp;Humidity;BMP_temperature;BMP_pressure;BME280_temperature;BME280_humidity;BME280_pressure;Samples;Min_cycle;Max_cycle;Signal;HPM_P1;HPM_P2
2022/08/04 00:03:26;;;;;;;6.43;4.78;;;;;;;17.61;72.45;97716.97;10200576;28;20757;-56
2022/08/04 00:08:41;;;;;;;9.98;5.38;;;;;;;17.58;72.52;97717.91;10198180;28;20126;-55
2022/08/04 00:13:42;;;;;;;6.97;5.30;;;;;;;17.24;73.33;97673.44;10195163;28;20138;-56
2022/08/04 00:18:49;;;;;;;8.90;5.93;;;;;;;17.41;73.90;97717.56;10204083;28;20114;-55
2022/08/04 00:23:50;;;;;;;8.27;5.53;;;;;;;17.38;73.95;97722.88;10207327;28;20074;-56
2022/08/04 00:28:50;;;;;;;11.52;6.43;;;;;;;17.35;73.76;97716.84;10205927;28;20074;-56
2022/08/04 00:33:50;;;;;;;15.65;6.97;;;;;;;17.31;74.19;97716.97;10200233;28;20172;-56
2022/08/04 00:38:50;;;;;;;13.75;6.18;;;;;;;17.26;74.54;97711.88;10208835;28;20521;-56
2022/08/04 00:44:14;;;;;;;11.30;6.45;;;;;;;17.19;74.47;97720.81;10213731;28;20113;-57
2022/08/04 00:49:13;;;;;;;10.00;6.07;;;;;;;17.15;74.58;97721.78;10212300;28;20150;-57
2022/08/04 00:54:23;;;;;;;;;;;;;;;17.11;75.02;97725.41;10211875;28;20051;-55
2022/08/04 00:59:43;;;;;;;10.98;6.05;;;;;;;17.02;75.68;97716.00;10214805;28;19945;-57
2022/08/04 01:04:42;;;;;;;;;;;;;;;16.85;76.48;97721.72;10196175;28;20066;-57
2022/08/04 01:09:44;;;;;;;12.27;7.30;;;;;;;16.73;76.94;97719.41;10213549;28;19969;-57
2022/08/04 01:15:13;;;;;;;11.80;6.95;;;;;;;16.69;76.88;97716.00;10212525;28;20062;-57
2022/08/04 01:20:19;;;;;;;9.32;6.35;;;;;;;16.65;76.93;97713.50;10215021;28;20046;-57
2022/08/04 01:25:34;;;;;;;8.35;6.15;;;;;;;16.65;77.06;97729.22;10214239;28;20078;-57
2022/08/04 01:30:35;;;;;;;8.10;5.80;;;;;;;16.57;77.25;97725.94;10210123;28;20559;-57
2022/08/04 01:35:42;;;;;;;8.80;5.65;;;;;;;16.54;77.24;97721.63;10216303;28;20125;-57
2022/08/04 01:40:43;;;;;;;8.85;6.10;;;;;;;16.52;77.27;97728.69;10216186;28;20077;-57
2022/08/04 01:45:49;;;;;;;9.38;6.43;;;;;;;16.39;77.96;97728.09;10217410;28;20085;-57
2022/08/04 01:50:52;;;;;;;8.48;6.05;;;;;;;16.28;78.12;97715.28;10182874;28;21128;-57
2022/08/04 01:55:52;;;;;;;8.13;6.25;;;;;;;16.29;78.07;97717.00;10177436;28;20085;-56
2022/08/04 02:01:03;;;;;;;8.95;6.78;;;;;;;16.34;78.26;97724.75;10210542;28;20074;-55
2022/08/04 02:06:30;;;;;;;10.90;6.93;;;;;;;16.29;78.39;97710.91;10216264;28;20101;-55
2022/08/04 02:11:29;;;;;;;12.90;7.32;;;;;;;16.21;79.24;97726.81;10215754;28;20078;-55
2022/08/04 02:16:46;;;;;;;;;;;;;;;16.16;79.65;97723.44;10216557;28;20065;-55
2022/08/04 02:21:50;;;;;;;11.27;6.88;;;;;;;16.13;79.88;97717.41;10213576;28;19960;-55
2022/08/04 02:26:52;;;;;;;11.95;7.07;;;;;;;16.15;80.03;97728.72;10211366;28;20509;-56
2022/08/04 02:32:02;;;;;;;12.52;6.82;;;;;;;16.07;80.90;97728.91;10215509;28;20485;-55
2022/08/04 02:37:03;;;;;;;9.23;6.95;;;;;;;16.03;80.47;97725.47;10214115;28;20087;-55
2022/08/04 02:42:04;;;;;;;13.38;6.63;;;;;;;15.96;80.67;97730.91;10214762;28;20509;-55
2022/08/04 02:47:04;;;;;;;13.73;7.05;;;;;;;15.97;80.78;97732.59;10213452;28;20074;-56
2022/08/04 02:52:05;;;;;;;9.32;6.07;;;;;;;15.93;80.77;97717.88;10214836;28;20082;-55
2022/08/04 02:57:08;;;;;;;9.95;6.53;;;;;;;16.00;80.60;97725.56;10213075;28;20085;-55
2022/08/04 03:02:07;;;;;;;9.30;6.32;;;;;;;15.98;80.40;97727.34;10214097;28;20081;-55
2022/08/04 03:07:44;;;;;;;;;;;;;;;15.97;80.44;97720.38;10198566;28;20126;-55
2022/08/04 03:13:20;;;;;;;11.38;6.65;;;;;;;16.00;80.37;97722.94;10207305;28;19956;-55
2022/08/04 03:18:54;;;;;;;10.25;6.93;;;;;;;15.98;80.33;97716.88;10172793;28;20468;-55
2022/08/04 03:24:15;;;;;;;10.50;6.40;;;;;;;15.98;80.28;97727.34;10170173;28;20078;-55
2022/08/04 03:29:32;;;;;;;12.50;6.32;;;;;;;16.00;80.38;97727.31;10213124;28;20449;-55
2022/08/04 03:35:08;;;;;;;11.07;6.43;;;;;;;16.06;80.42;97719.31;10199175;28;20176;-55
2022/08/04 03:40:32;;;;;;;10.98;7.50;;;;;;;16.16;80.35;97720.84;10213012;28;20062;-56
2022/08/04 03:45:33;;;;;;;12.98;7.45;;;;;;;16.23;80.18;97719.78;10215802;28;20073;-55
2022/08/04 03:56:17;;;;;;;13.05;7.05;;;;;;;16.33;79.78;97720.41;10189898;28;20079;-56
2022/08/04 04:01:22;;;;;;;14.60;6.90;;;;;;;16.46;79.59;97723.56;10175560;28;20074;-56
2022/08/04 04:07:01;;;;;;;14.60;7.70;;;;;;;16.45;79.46;97727.09;10201899;28;20077;-56
2022/08/04 04:12:31;;;;;;;15.80;7.30;;;;;;;16.49;79.20;97729.63;10213700;28;20075;-55
2022/08/04 04:18:07;;;;;;;10.85;7.63;;;;;;;16.52;78.74;97729.53;10213255;28;20070;-56
2022/08/04 04:23:21;;;;;;;12.57;7.30;;;;;;;16.65;78.67;97729.22;10211146;28;20133;-56
2022/08/04 04:28:23;;;;;;;13.80;8.38;;;;;;;16.78;78.33;97729.75;10211415;28;20058;-56
2022/08/04 04:33:42;;;;;;;11.57;7.43;;;;;;;16.92;77.77;97733.75;10212766;28;20086;-56
2022/08/04 04:39:20;;;;;;;;;;;;;;;17.05;77.43;97730.81;10212000;28;20062;-56
2022/08/04 04:44:54;;;;;;;15.93;8.57;;;;;;;17.16;77.06;97741.84;10166125;28;20005;-57
2022/08/04 04:50:02;;;;;;;19.40;8.02;;;;;;;17.12;77.47;97734.97;10205346;28;20110;-57
2022/08/04 04:55:07;;;;;;;17.38;7.63;;;;;;;17.11;77.63;97738.50;10206456;28;20070;-56
2022/08/04 05:00:09;;;;;;;13.95;8.25;;;;;;;17.19;77.83;97741.78;10209103;28;20073;-57
2022/08/04 05:05:32;;;;;;;12.23;7.90;;;;;;;17.12;78.74;97742.84;10207108;28;20069;-57
2022/08/04 05:10:49;;;;;;;14.02;8.57;;;;;;;17.45;78.16;97753.28;10209809;28;20078;-56
2022/08/04 05:15:52;;;;;;;14.60;8.63;;;;;;;17.75;77.31;97760.28;10205656;28;20105;-57
2022/08/04 05:21:25;;;;;;;11.55;7.70;;;;;;;18.15;76.24;97761.72;10207280;28;20062;-56
2022/08/04 05:26:31;;;;;;;11.85;7.25;;;;;;;18.13;75.59;97760.06;10216276;28;20522;-56
2022/08/04 05:31:35;;;;;;;12.25;6.93;;;;;;;18.22;74.98;97764.13;10216185;28;20066;-56
2022/08/04 05:36:43;;;;;;;9.57;6.18;;;;;;;18.45;75.01;97766.03;10214217;28;20082;-55
2022/08/04 05:41:43;;;;;;;9.48;5.65;;;;;;;18.81;73.69;97758.75;10216015;28;20077;-56
2022/08/04 05:46:46;;;;;;;8.45;5.32;;;;;;;19.16;71.82;97754.88;10214326;28;20100;-56
2022/08/04 05:51:46;;;;;;;8.35;5.07;;;;;;;19.64;69.91;97776.84;10217169;28;20136;-57
2022/08/04 05:56:46;;;;;;;7.13;5.10;;;;;;;20.13;68.07;97767.09;10215394;28;20062;-57
2022/08/04 06:01:47;;;;;;;6.18;5.22;;;;;;;20.54;65.75;97761.97;10211701;28;20074;-57
2022/08/04 06:06:47;;;;;;;6.53;4.95;;;;;;;21.04;63.91;97772.16;10186412;28;20078;-57
2022/08/04 06:11:49;;;;;;;5.22;4.57;;;;;;;21.47;61.99;97767.66;10176486;29;20446;-57
2022/08/04 06:16:49;;;;;;;8.02;5.00;;;;;;;21.91;60.19;97774.50;10203904;28;20097;-56
2022/08/04 06:21:50;;;;;;;8.02;5.05;;;;;;;22.23;58.95;97773.00;10211748;28;20516;-57
2022/08/04 06:26:50;;;;;;;6.40;4.40;;;;;;;22.59;57.02;97772.16;10213265;28;20081;-56
2022/08/04 06:31:57;;;;;;;7.60;4.30;;;;;;;22.95;55.54;97766.84;10212749;28;20058;-56
2022/08/04 06:36:57;;;;;;;6.45;4.63;;;;;;;23.31;54.81;97760.56;10204248;28;20074;-56
2022/08/04 06:41:56;;;;;;;7.32;4.07;;;;;;;23.65;52.68;97758.78;10201510;28;20081;-56
2022/08/04 06:46:57;;;;;;;5.57;4.68;;;;;;;23.63;50.80;97765.97;10212030;28;20077;-56
2022/08/04 06:51:57;;;;;;;9.07;4.82;;;;;;;23.90;50.83;97762.78;10202970;28;20074;-57
2022/08/04 06:56:57;;;;;;;8.48;4.93;;;;;;;24.21;49.66;97765.44;10180942;28;20059;-57
2022/08/04 07:01:58;;;;;;;7.25;4.68;;;;;;;24.44;47.95;97760.66;10207699;28;20055;-57
2022/08/04 07:06:57;;;;;;;8.15;4.53;;;;;;;24.69;48.34;97757.44;10204728;28;20065;-57
2022/08/04 07:11:58;;;;;;;8.43;4.70;;;;;;;25.00;46.96;97760.97;10219277;28;20058;-57
2022/08/04 07:16:58;;;;;;;6.45;4.65;;;;;;;24.96;45.53;97760.28;10202650;28;20066;-57
2022/08/04 07:21:59;;;;;;;8.10;4.43;;;;;;;25.06;46.25;97760.63;10215851;28;20118;-56
2022/08/04 07:26:59;;;;;;;6.28;4.72;;;;;;;25.20;45.88;97758.00;10219841;28;20074;-56
2022/08/04 07:31:59;;;;;;;8.95;5.53;;;;;;;25.25;46.37;97747.94;10183741;28;20520;-56
2022/08/04 07:36:59;;;;;;;5.45;4.30;;;;;;;25.46;45.65;97752.91;10212041;28;20093;-56
2022/08/04 07:42:00;;;;;;;4.53;3.78;;;;;;;25.44;44.60;97757.44;10204363;28;20074;-56
2022/08/04 07:47:01;;;;;;;4.78;3.97;;;;;;;25.23;44.63;97760.44;10177760;28;20081;-56
2022/08/04 07:52:01;;;;;;;4.75;3.58;;;;;;;25.58;44.92;97754.81;10185158;28;20984;-56
2022/08/04 07:57:00;;;;;;;4.78;4.05;;;;;;;25.83;44.83;97750.59;10198254;28;20069;-56
2022/08/04 08:02:00;;;;;;;5.05;3.83;;;;;;;25.90;43.21;97751.94;10189095;28;20059;-56
2022/08/04 08:06:59;;;;;;;4.90;3.22;;;;;;;26.00;42.98;97752.22;10182401;28;20082;-56
2022/08/04 08:12:00;;;;;;;6.13;3.80;;;;;;;26.25;42.81;97751.50;10206539;28;20035;-57
2022/08/04 08:17:01;;;;;;;3.50;2.97;;;;;;;26.38;40.02;97756.91;10199866;28;20677;-57
2022/08/04 08:22:00;;;;;;;3.60;3.30;;;;;;;26.75;39.45;97750.00;10200989;28;20557;-57
2022/08/04 08:27:03;;;;;;;4.95;3.33;;;;;;;27.14;37.90;97748.28;10237669;28;20074;-57
2022/08/04 08:32:03;;;;;;;6.22;3.80;;;;;;;27.57;38.23;97748.00;10209660;28;20070;-57
2022/08/04 08:37:34;;;;;;;4.82;3.22;;;;;;;28.00;36.24;97745.78;10207654;28;20078;-57
2022/08/04 08:42:45;;;;;;;3.90;3.42;;;;;;;28.33;35.68;97746.13;10206477;28;20073;-57
2022/08/04 08:48:20;;;;;;;3.40;3.10;;;;;;;28.42;34.42;97742.78;10203505;28;20058;-57
2022/08/04 08:53:40;;;;;;;3.80;3.17;;;;;;;28.51;35.03;97744.78;10196939;28;20480;-57
2022/08/04 08:58:45;;;;;;;5.20;3.17;;;;;;;28.36;34.26;97740.56;10207912;28;20067;-57
2022/08/04 09:03:56;;;;;;;4.72;3.35;;;;;;;28.25;34.93;97736.03;10221093;28;20070;-57
2022/08/04 09:09:13;;;;;;;4.53;2.90;;;;;;;28.32;35.55;97733.75;10198349;28;20071;-58
2022/08/04 09:14:44;;;;;;;3.95;3.53;;;;;;;28.55;35.34;97727.56;10183254;28;20083;-57
2022/08/04 09:19:51;;;;;;;4.05;3.20;;;;;;;28.71;34.61;97718.41;10211539;28;20070;-57
2022/08/04 09:24:53;;;;;;;3.97;3.10;;;;;;;29.14;34.91;97723.16;10214485;28;20449;-55
2022/08/04 09:30:03;;;;;;;3.13;2.83;;;;;;;29.38;33.45;97720.44;10218986;28;20066;-56
2022/08/04 09:35:36;;;;;;;4.43;3.13;;;;;;;29.67;33.65;97719.00;10215613;28;20086;-56
2022/08/04 09:40:50;;;;;;;4.57;4.13;;;;;;;30.13;33.00;97714.44;10217304;28;20474;-56
2022/08/04 09:46:09;;;;;;;3.78;2.95;;;;;;;30.18;31.98;97706.88;10215462;28;20058;-56
2022/08/04 09:51:35;;;;;;;3.28;2.97;;;;;;;30.39;32.60;97703.41;10215890;28;20082;-58
2022/08/04 09:56:40;;;;;;;4.85;3.05;;;;;;;30.39;30.65;97698.06;10191925;28;20071;-57
2022/08/04 10:01:40;;;;;;;7.28;3.22;;;;;;;29.91;31.67;97696.63;10211320;28;20062;-58
2022/08/04 10:07:01;;;;;;;4.07;3.17;;;;;;;29.22;32.99;97705.53;10212230;28;20062;-57
2022/08/04 10:12:24;;;;;;;4.50;2.70;;;;;;;29.38;32.80;97696.38;10207241;28;20078;-56
2022/08/04 10:17:50;;;;;;;4.30;3.00;;;;;;;29.28;32.88;97694.41;10204504;28;20117;-57
2022/08/04 10:22:55;;;;;;;3.60;2.95;;;;;;;29.54;31.41;97691.50;10190087;28;20122;-57
2022/08/04 10:27:59;;;;;;;4.63;2.70;;;;;;;29.68;30.50;97685.91;10208092;28;20501;-57
2022/08/04 10:33:04;;;;;;;3.63;2.80;;;;;;;29.59;30.90;97681.28;10213329;28;20081;-57
2022/08/04 10:38:06;;;;;;;3.17;2.63;;;;;;;29.66;29.66;97676.31;10213376;28;20058;-57
2022/08/04 10:43:45;;;;;;;3.33;2.92;;;;;;;29.96;29.20;97673.00;10213344;28;20062;-57
2022/08/04 10:48:55;;;;;;;;;;;;;;;29.60;29.27;97676.78;10215474;28;20069;-57
2022/08/04 10:54:07;;;;;;;3.50;3.15;;;;;;;29.61;30.36;97674.00;10204547;28;20719;-56
2022/08/04 10:59:11;;;;;;;4.82;2.78;;;;;;;29.92;29.50;97669.72;10213347;28;20058;-56
2022/08/04 11:04:24;;;;;;;4.03;2.95;;;;;;;30.00;28.62;97662.88;10208749;28;20794;-56
2022/08/04 11:09:24;;;;;;;3.90;3.20;;;;;;;30.37;29.72;97646.47;10212115;28;20062;-56
2022/08/04 11:14:50;;;;;;;4.53;2.90;;;;;;;30.18;28.63;97647.16;10193535;28;20113;-56
2022/08/04 11:20:36;;;;;;;4.55;3.15;;;;;;;30.34;28.92;97644.91;10182187;28;20117;-55
2022/08/04 11:25:47;;;;;;;4.88;3.15;;;;;;;30.05;27.79;97641.97;10209564;28;20547;-56
2022/08/04 11:30:54;;;;;;;4.85;3.13;;;;;;;30.08;29.44;97631.84;10175590;28;20067;-57
2022/08/04 11:36:02;;;;;;;4.35;3.05;;;;;;;30.32;28.67;97628.94;10214066;28;20078;-57
2022/08/04 11:41:13;;;;;;;4.65;3.30;;;;;;;30.47;28.34;97626.03;10215761;28;20070;-57
2022/08/04 11:46:55;;;;;;;5.03;3.05;;;;;;;30.69;28.42;97619.69;10216526;28;20544;-58
2022/08/04 11:51:59;;;;;;;5.07;3.35;;;;;;;30.66;27.30;97618.13;10211384;28;20069;-58
2022/08/04 11:56:59;;;;;;;3.40;3.10;;;;;;;31.22;27.11;97606.19;10212745;28;20159;-57
2022/08/04 12:02:25;;;;;;;4.70;3.10;;;;;;;31.67;27.01;97615.66;10198820;28;20071;-57
2022/08/04 12:07:27;;;;;;;5.95;3.40;;;;;;;31.47;26.65;97604.84;10174233;28;20074;-56
2022/08/04 12:12:45;;;;;;;5.10;3.58;;;;;;;30.97;27.80;97604.78;10187195;28;20521;-57
2022/08/04 12:18:06;;;;;;;5.85;3.67;;;;;;;31.43;26.80;97607.91;10187763;28;20075;-56
2022/08/04 12:23:13;;;;;;;5.32;3.50;;;;;;;31.74;26.58;97606.91;10197292;28;20066;-57
2022/08/04 12:28:23;;;;;;;6.03;3.50;;;;;;;31.94;25.86;97597.06;10204081;28;20775;-57
2022/08/04 12:33:48;;;;;;;3.92;3.50;;;;;;;31.87;25.83;97601.28;10204087;28;20089;-57
2022/08/04 12:38:56;;;;;;;4.45;3.53;;;;;;;31.81;25.49;97596.47;10220007;28;20058;-56
2022/08/04 12:44:04;;;;;;;4.47;3.90;;;;;;;32.06;24.98;97573.66;10217953;28;20058;-57
2022/08/04 12:49:04;;;;;;;4.35;3.65;;;;;;;31.92;25.70;97588.31;10218066;28;20774;-57
2022/08/04 12:54:07;;;;;;;4.63;3.45;;;;;;;31.61;27.11;97584.84;10218739;28;20472;-58
2022/08/04 12:59:08;;;;;;;4.03;3.40;;;;;;;31.31;27.66;97583.91;10200422;28;20062;-57
2022/08/04 13:04:15;;;;;;;4.85;3.80;;;;;;;30.81;28.58;97591.81;10210832;28;20149;-57
2022/08/04 13:09:21;;;;;;;4.75;3.72;;;;;;;30.68;29.08;97592.06;10196249;28;20488;-58
2022/08/04 13:14:22;;;;;;;3.65;3.35;;;;;;;30.31;29.67;97591.63;10207142;28;20564;-57
2022/08/04 13:19:21;;;;;;;6.68;3.90;;;;;;;30.37;29.61;97587.56;10206953;28;20110;-57
2022/08/04 13:24:21;;;;;;;4.30;3.85;;;;;;;30.49;28.81;97586.56;10208860;28;20106;-57
2022/08/04 13:29:22;;;;;;;3.92;3.50;;;;;;;31.05;26.76;97582.66;10193767;28;20119;-57
2022/08/04 13:34:22;;;;;;;5.03;3.80;;;;;;;31.48;26.77;97573.53;10208409;28;20138;-57
2022/08/04 13:39:23;;;;;;;7.13;3.97;;;;;;;31.54;26.86;97563.09;10198833;28;20122;-57
2022/08/04 13:44:26;;;;;;;4.75;3.58;;;;;;;31.52;26.93;97565.09;10206186;28;20130;-57
2022/08/04 13:49:27;;;;;;;4.07;3.67;;;;;;;31.43;26.67;97571.25;10183312;28;20603;-57
2022/08/04 13:54:36;;;;;;;5.60;3.72;;;;;;;31.52;27.25;97553.50;10238074;28;20071;-57
2022/08/04 13:59:37;;;;;;;4.72;3.60;;;;;;;31.75;27.00;97543.38;10208884;28;20121;-57
2022/08/04 14:04:50;;;;;;;9.45;4.25;;;;;;;31.85;26.88;97554.09;10202021;28;20117;-57
2022/08/04 14:09:50;;;;;;;10.63;8.70;;;;;;;32.18;26.45;97540.31;10176015;28;20109;-58
2022/08/04 14:14:51;;;;;;;4.00;3.60;;;;;;;32.34;26.31;97538.84;10189153;28;20932;-59
2022/08/04 14:20:02;;;;;;;7.30;3.72;;;;;;;32.47;26.74;97538.56;10192452;28;20110;-58
2022/08/04 14:25:04;;;;;;;5.65;3.65;;;;;;;32.37;25.98;97536.75;10204625;28;20129;-57
2022/08/04 14:30:03;;;;;;;4.50;3.75;;;;;;;32.32;25.42;97535.47;10199825;28;20118;-57
2022/08/04 14:35:10;;;;;;;5.70;4.40;;;;;;;32.24;26.55;97540.72;10203489;28;20133;-57
2022/08/04 14:40:22;;;;;;;5.27;3.57;;;;;;;32.01;25.74;97549.91;10201470;28;20134;-57
2022/08/04 14:45:42;;;;;;;6.55;3.75;;;;;;;31.95;26.51;97546.94;10185887;28;20450;-57
2022/08/04 14:50:42;;;;;;;3.38;3.08;;;;;;;31.71;25.14;97556.22;10210164;28;20142;-57
2022/08/04 14:55:48;;;;;;;6.20;4.10;;;;;;;31.53;25.79;97548.00;10189676;28;20122;-57
2022/08/04 15:00:48;;;;;;;6.57;3.92;;;;;;;31.39;25.90;97551.06;10197395;28;20113;-58
2022/08/04 15:05:48;;;;;;;5.93;3.72;;;;;;;31.00;26.31;97545.56;10206647;28;20692;-58
2022/08/04 15:10:47;;;;;;;5.50;4.10;;;;;;;30.86;26.77;97551.25;10192380;28;20154;-57
2022/08/04 15:15:46;;;;;;;5.93;4.82;;;;;;;30.66;27.02;97548.47;10172680;28;20121;-58
2022/08/04 15:20:46;;;;;;;7.30;3.88;;;;;;;30.77;26.92;97542.16;10182394;28;20457;-58
2022/08/04 15:25:50;;;;;;;5.00;3.90;;;;;;;30.88;27.48;97538.56;10203301;28;20134;-57
2022/08/04 15:30:50;;;;;;;4.63;3.33;;;;;;;30.81;26.84;97529.38;10208886;28;20138;-57
2022/08/04 15:36:08;;;;;;;32.70;21.38;;;;;;;30.58;27.11;97531.38;10205260;28;20126;-57
2022/08/04 15:41:13;;;;;;;4.60;3.53;;;;;;;30.55;27.23;97543.19;10199634;28;20129;-57
2022/08/04 15:46:12;;;;;;;31.38;16.48;;;;;;;30.44;27.63;97532.53;10200364;28;20442;-56
2022/08/04 15:51:11;;;;;;;10.07;5.80;;;;;;;30.24;27.85;97535.06;10209245;28;20468;-58
2022/08/04 15:56:43;;;;;;;5.97;3.92;;;;;;;30.22;28.31;97536.19;10207489;28;20618;-56
2022/08/04 16:01:42;;;;;;;29.55;22.02;;;;;;;30.22;28.29;97526.31;10193934;28;20150;-57
2022/08/04 16:06:42;;;;;;;5.72;4.10;;;;;;;30.22;28.92;97529.00;10201441;28;20118;-56
2022/08/04 16:11:41;;;;;;;11.48;7.80;;;;;;;30.33;28.35;97528.94;10179171;28;20113;-56
2022/08/04 16:16:49;;;;;;;9.35;5.43;;;;;;;30.27;28.76;97534.81;10216860;28;20122;-57
2022/08/04 16:21:55;;;;;;;21.08;13.05;;;;;;;30.21;28.59;97529.13;10182013;28;20134;-58
2022/08/04 16:26:56;;;;;;;8.13;5.38;;;;;;;30.07;27.73;97520.44;10171146;28;20924;-57
2022/08/04 16:32:04;;;;;;;8.23;6.55;;;;;;;30.12;27.63;97533.44;10193398;28;20057;-58
2022/08/04 16:37:11;;;;;;;6.90;3.53;;;;;;;29.89;28.16;97533.53;10188556;28;20157;-57
2022/08/04 16:42:28;;;;;;;6.50;4.50;;;;;;;29.91;28.21;97534.25;10184994;28;20129;-58
2022/08/04 16:47:46;;;;;;;11.23;7.70;;;;;;;29.81;28.07;97529.75;10190048;28;20130;-58
2022/08/04 16:52:53;;;;;;;19.05;13.75;;;;;;;29.68;28.50;97532.63;10180573;28;20233;-57
2022/08/04 16:57:56;;;;;;;9.17;5.93;;;;;;;29.47;28.96;97540.59;10201676;28;20113;-55
2022/08/04 17:02:56;;;;;;;23.75;18.05;;;;;;;29.23;28.88;97540.72;10195743;28;20137;-57
2022/08/04 17:07:57;;;;;;;11.13;7.78;;;;;;;29.07;29.34;97547.28;10200610;28;20122;-57
2022/08/04 17:12:56;;;;;;;15.32;9.77;;;;;;;28.88;29.22;97550.56;10189328;28;20194;-56
2022/08/04 17:18:19;;;;;;;6.88;4.72;;;;;;;28.77;29.07;97557.72;10172193;28;20030;-56
2022/08/04 17:23:42;;;;;;;6.75;4.07;;;;;;;28.66;31.23;97564.75;10210273;28;20130;-56
2022/08/04 17:28:46;;;;;;;8.18;5.22;;;;;;;28.51;32.40;97573.06;10198354;28;20619;-56
2022/08/04 17:33:47;;;;;;;6.10;4.72;;;;;;;28.19;34.08;97573.72;10228581;28;20128;-56
2022/08/04 17:38:53;;;;;;;6.80;5.20;;;;;;;27.88;34.23;97575.97;10224028;28;20113;-56
2022/08/04 17:44:00;;;;;;;6.65;5.13;;;;;;;27.52;35.11;97568.91;10225368;28;20129;-58
2022/08/04 17:49:01;;;;;;;20.10;11.82;;;;;;;27.19;35.58;97576.50;10210457;28;20106;-58
2022/08/04 17:54:02;;;;;;;11.02;6.43;;;;;;;26.91;36.42;97582.94;10232177;28;20141;-56
2022/08/04 17:59:13;;;;;;;7.43;5.65;;;;;;;26.63;37.80;97586.66;10225334;28;20059;-57
2022/08/04 18:04:28;;;;;;;7.25;4.63;;;;;;;26.25;38.26;97575.94;10226428;28;20142;-56
2022/08/04 18:09:51;;;;;;;7.50;4.95;;;;;;;26.02;39.02;97594.28;10224247;28;20146;-56
2022/08/04 18:14:53;;;;;;;8.18;5.78;;;;;;;25.87;39.17;97601.44;10240209;28;20141;-58
2022/08/04 18:19:52;;;;;;;5.45;4.65;;;;;;;25.59;39.74;97599.72;10218016;28;20174;-58
2022/08/04 18:24:51;;;;;;;7.38;4.50;;;;;;;25.41;39.88;97608.84;10208296;28;20952;-57
2022/08/04 18:29:51;;;;;;;7.45;4.53;;;;;;;25.20;40.19;97619.91;10222937;28;20043;-57
2022/08/04 18:34:52;;;;;;;6.07;4.07;;;;;;;25.00;40.75;97623.78;10187778;28;20235;-57
2022/08/04 18:39:51;;;;;;;8.82;4.07;;;;;;;24.72;40.76;97623.72;10220957;28;20134;-57
2022/08/04 18:44:49;;;;;;;5.25;3.95;;;;;;;24.48;41.00;97627.75;10230130;28;20512;-56
2022/08/04 18:49:49;;;;;;;5.90;4.07;;;;;;;24.30;41.34;97630.63;10222613;28;20493;-58
2022/08/04 18:54:48;;;;;;;4.75;3.72;;;;;;;24.08;42.29;97629.22;10226033;28;20113;-57
2022/08/04 18:59:47;;;;;;;4.97;4.00;;;;;;;23.90;43.18;97647.00;10209716;28;20170;-56
2022/08/04 19:04:47;;;;;;;5.70;4.07;;;;;;;23.67;44.04;97648.31;10220334;28;20992;-57
2022/08/04 19:09:46;;;;;;;7.07;4.47;;;;;;;23.49;44.23;97657.25;10201371;28;20146;-57
2022/08/04 19:14:45;;;;;;;6.13;4.30;;;;;;;23.31;45.14;97653.81;10230263;28;20034;-57
2022/08/04 19:19:44;;;;;;;8.05;4.75;;;;;;;23.19;45.52;97656.19;10192944;28;20781;-57
2022/08/04 19:24:43;;;;;;;7.18;4.72;;;;;;;23.05;45.36;97653.41;10206776;28;20682;-57
2022/08/04 19:29:42;;;;;;;7.78;4.82;;;;;;;22.97;45.39;97660.88;10204002;28;20038;-57
2022/08/04 19:34:45;;;;;;;11.18;4.97;;;;;;;22.93;45.54;97659.38;10204567;28;20055;-57
2022/08/04 19:39:43;;;;;;;7.82;5.07;;;;;;;22.87;46.38;97659.66;10203834;28;20059;-57
2022/08/04 19:44:43;;;;;;;10.00;5.40;;;;;;;22.77;46.69;97664.59;10218962;28;20046;-57
2022/08/04 19:49:42;;;;;;;11.65;5.47;;;;;;;22.67;46.98;97663.31;10213450;28;20117;-57
2022/08/04 19:54:41;;;;;;;5.47;4.72;;;;;;;22.59;46.73;97672.50;10200366;28;20056;-55
2022/08/04 19:59:40;;;;;;;7.72;4.30;;;;;;;22.54;46.50;97673.66;10196128;28;20109;-55
2022/08/04 20:04:39;;;;;;;5.05;4.38;;;;;;;22.50;46.12;97674.75;10206571;28;20490;-56
2022/08/04 20:09:38;;;;;;;11.90;6.43;;;;;;;22.44;47.24;97675.06;10213384;28;20473;-57
2022/08/04 20:14:37;;;;;;;10.70;5.40;;;;;;;22.31;48.38;97680.09;10212922;28;20038;-57
2022/08/04 20:19:38;;;;;;;9.50;6.25;;;;;;;22.17;49.24;97683.44;10199581;28;20584;-57
2022/08/04 20:24:37;;;;;;;8.65;6.20;;;;;;;21.99;49.63;97687.81;10207863;28;20518;-58
2022/08/04 20:29:36;;;;;;;7.97;4.80;;;;;;;21.89;50.08;97691.81;10189355;28;20046;-57
2022/08/04 20:34:35;;;;;;;7.68;5.75;;;;;;;21.76;50.01;97696.81;10198912;28;20053;-57
2022/08/04 20:39:34;;;;;;;8.27;6.18;;;;;;;21.65;50.67;97694.69;10188132;28;20026;-56
2022/08/04 20:44:33;;;;;;;8.60;5.50;;;;;;;21.58;50.93;97695.03;10192705;28;20046;-56
2022/08/04 20:49:31;;;;;;;6.78;5.00;;;;;;;21.44;51.54;97704.44;10203842;28;20208;-57
2022/08/04 20:54:31;;;;;;;8.60;4.90;;;;;;;21.31;52.34;97705.91;10200807;28;20661;-57
2022/08/04 20:59:30;;;;;;;6.40;4.97;;;;;;;21.24;52.81;97705.38;10213638;28;20062;-56
2022/08/04 21:04:37;;;;;;;8.40;5.10;;;;;;;21.15;53.05;97711.00;10206242;28;20133;-56
2022/08/04 21:09:38;;;;;;;7.38;5.18;;;;;;;21.05;53.53;97714.97;10198884;28;20134;-56
2022/08/04 21:14:37;;;;;;;7.55;5.40;;;;;;;20.88;54.23;97713.91;10198374;28;20172;-56
2022/08/04 21:19:36;;;;;;;11.68;6.32;;;;;;;20.72;55.49;97718.13;10192530;28;20118;-57
2022/08/04 21:24:35;;;;;;;7.80;5.43;;;;;;;20.45;56.53;97720.16;10200531;28;20121;-56
2022/08/04 21:29:34;;;;;;;6.85;4.82;;;;;;;20.21;56.66;97717.59;10197669;28;20133;-56
2022/08/04 21:34:34;;;;;;;6.70;4.57;;;;;;;20.07;57.06;97719.91;10209785;28;20125;-56
2022/08/04 21:39:33;;;;;;;6.75;4.85;;;;;;;19.97;57.44;97724.66;10200666;28;20150;-56
2022/08/04 21:44:32;;;;;;;7.70;5.32;;;;;;;19.92;57.96;97718.72;10208653;28;20034;-56
2022/08/04 21:49:31;;;;;;;8.55;4.93;;;;;;;19.81;57.92;97721.81;10200722;28;20046;-56
2022/08/04 21:54:30;;;;;;;8.18;5.40;;;;;;;19.77;58.32;97722.84;10200328;28;20770;-57
2022/08/04 21:59:29;;;;;;;10.15;5.68;;;;;;;19.72;59.43;97719.53;10199993;28;20023;-56
2022/08/04 22:04:29;;;;;;;7.70;5.22;;;;;;;19.65;59.76;97712.78;10210049;28;20180;-56
2022/08/04 22:09:27;;;;;;;7.30;5.28;;;;;;;19.58;60.56;97714.78;10190573;28;20126;-56
2022/08/04 22:14:26;;;;;;;7.22;5.40;;;;;;;19.48;60.72;97715.13;10195676;28;20038;-56
2022/08/04 22:19:25;;;;;;;6.57;5.05;;;;;;;19.41;60.98;97720.63;10194161;28;20026;-57
2022/08/04 22:24:24;;;;;;;8.50;5.90;;;;;;;19.36;61.16;97722.56;10199665;28;20844;-56
2022/08/04 22:29:23;;;;;;;8.85;5.60;;;;;;;19.30;61.23;97724.56;10195028;28;20055;-56
2022/08/04 22:34:23;;;;;;;7.85;5.57;;;;;;;19.28;61.66;97727.28;10197062;28;20051;-56
2022/08/04 22:39:22;;;;;;;9.98;6.05;;;;;;;19.23;61.78;97721.31;10219247;28;20156;-56
2022/08/04 22:44:21;;;;;;;8.98;6.03;;;;;;;19.16;62.67;97722.47;10206029;28;20110;-56
2022/08/04 22:49:20;;;;;;;9.07;5.65;;;;;;;19.13;62.94;97709.41;10221122;28;20043;-56
2022/08/04 22:54:19;;;;;;;7.18;5.57;;;;;;;19.06;64.11;97708.75;10203813;28;20544;-56
2022/08/04 22:59:18;;;;;;;8.00;6.40;;;;;;;18.99;64.05;97716.03;10194661;28;20514;-56
2022/08/04 23:04:17;;;;;;;11.13;6.00;;;;;;;18.92;64.54;97709.25;10218331;28;20483;-56
2022/08/04 23:09:16;;;;;;;9.93;5.68;;;;;;;18.84;64.97;97708.66;10215918;28;20538;-57
2022/08/04 23:14:15;;;;;;;8.45;5.60;;;;;;;18.69;65.01;97704.81;10218356;28;20035;-57
2022/08/04 23:19:13;;;;;;;8.57;4.88;;;;;;;18.38;65.36;97707.56;10197801;28;20051;-57
2022/08/04 23:24:12;;;;;;;8.20;5.35;;;;;;;18.29;65.81;97700.88;10199998;28;20099;-57
2022/08/04 23:29:11;;;;;;;6.75;5.57;;;;;;;18.29;65.78;97703.50;10229089;28;20943;-57
2022/08/04 23:34:10;;;;;;;8.30;5.55;;;;;;;18.28;66.11;97708.78;10206925;28;20730;-56
2022/08/04 23:39:09;;;;;;;;;;;;;;;18.16;66.90;97710.06;10196743;28;20440;-57
2022/08/04 23:44:08;;;;;;;9.13;5.93;;;;;;;18.08;67.29;97707.69;10223140;28;19925;-57
2022/08/04 23:49:08;;;;;;;9.73;6.32;;;;;;;18.03;67.86;97709.56;10205830;28;20049;-57